Time;durP1;ratioP1;P1;durP2;ratioP2;P2;SDS_P1;SDS_P2;PMS_P1;PMS_P2;Temp;Humidity;BMP_temperature;BMP_pressure;BME280_temperature;BME280_humidity;BME280_pressure;Samples;Min_cycle;Max_cycle;Signal;HPM_P1;HPM_P2
2022/12/18 00:01:53;;;;;;;65.15;30.45;;;;;;;-3.75;76.62;102750.55;1735625;81;21042;-90
2022/12/18 00:04:24;;;;;;;58.95;28.32;;;;;;;-3.78;76.67;102747.62;1743932;81;21066;-90
2022/12/18 00:07:09;;;;;;;55.30;28.23;;;;;;;-3.77;76.72;102748.56;1760837;79;22676;-88
2022/12/18 00:09:36;;;;;;;57.15;27.52;;;;;;;-3.87;76.69;102734.08;1753531;79;21710;-86
2022/12/18 00:12:04;;;;;;;56.48;27.45;;;;;;;-3.79;76.77;102753.52;1734093;81;21041;-85
2022/12/18 00:14:33;;;;;;;56.83;27.42;;;;;;;-3.79;76.78;102750.95;1761730;79;21072;-85
2022/12/18 00:17:00;;;;;;;49.53;27.98;;;;;;;-3.79;76.78;102762.88;1740881;79;21038;-88
2022/12/18 00:22:35;;;;;;;54.38;28.12;;;;;;;-3.82;76.80;102759.97;1770870;80;21037;-89
2022/12/18 00:25:02;;;;;;;62.65;28.85;;;;;;;-3.85;76.80;102764.75;1755775;79;21484;-85
2022/12/18 00:27:29;;;;;;;55.65;27.15;;;;;;;-3.89;76.82;102766.05;1751378;80;21666;-89
2022/12/18 00:30:10;;;;;;;50.20;25.75;;;;;;;-3.93;76.82;102768.64;1756176;79;21046;-88
2022/12/18 00:32:37;;;;;;;47.65;25.88;;;;;;;-3.96;76.85;102764.80;1744043;80;21754;-86
2022/12/18 00:35:09;;;;;;;47.70;26.52;;;;;;;-3.96;76.96;102766.08;1736110;80;21043;-88
2022/12/18 00:37:42;;;;;;;45.43;24.85;;;;;;;-3.99;76.96;102764.46;1770568;79;21046;-89
2022/12/18 00:40:12;;;;;;;48.78;24.92;;;;;;;-3.98;77.04;102766.28;1739982;79;21421;-86
2022/12/18 00:43:10;;;;;;;45.38;25.35;;;;;;;-4.00;77.11;102769.05;1754691;79;21064;-91
2022/12/18 00:45:41;;;;;;;45.70;22.70;;;;;;;-4.00;77.13;102771.62;1746231;79;21825;-90
2022/12/18 00:48:08;;;;;;;46.58;22.80;;;;;;;-4.02;77.12;102774.39;1721533;82;21048;-90
2022/12/18 00:50:54;;;;;;;47.80;23.92;;;;;;;-4.03;77.12;102773.86;1726242;83;21585;-90
2022/12/18 00:53:21;;;;;;;46.63;24.50;;;;;;;-4.06;77.07;102770.91;1724475;82;21063;-85
2022/12/18 00:56:21;;;;;;;48.42;24.87;;;;;;;-4.11;77.03;102783.22;1730891;82;22028;-90
2022/12/18 00:58:47;;;;;;;44.65;23.22;;;;;;;-4.15;77.01;102783.61;1752365;79;21710;-85
2022/12/18 01:01:23;;;;;;;51.37;24.57;;;;;;;-4.19;77.04;102787.86;1753289;79;21087;-90
2022/12/18 01:03:50;;;;;;;44.98;23.47;;;;;;;-4.20;77.06;102786.95;1749001;81;21663;-88
2022/12/18 01:06:17;;;;;;;41.73;22.20;;;;;;;-4.21;77.09;102789.34;1718079;82;21067;-87
2022/12/18 01:08:44;;;;;;;42.78;21.97;;;;;;;-4.24;77.10;102786.05;1776688;79;21045;-87
2022/12/18 01:12:08;;;;;;;38.75;20.92;;;;;;;-4.24;77.18;102787.34;1746482;82;21754;-91
2022/12/18 01:14:34;;;;;;;38.13;20.90;;;;;;;-4.25;77.20;102791.01;1781833;79;21608;-86
2022/12/18 01:17:03;;;;;;;36.10;20.48;;;;;;;-4.27;77.18;102795.97;1755944;79;21159;-85
2022/12/18 01:19:30;;;;;;;40.80;21.42;;;;;;;-4.27;77.25;102801.48;1763592;79;21058;-86
2022/12/18 01:22:10;;;;;;;37.65;20.37;;;;;;;-4.29;77.31;102809.02;1770953;79;21092;-89
2022/12/18 01:24:36;;;;;;;39.25;21.23;;;;;;;-4.31;77.33;102808.83;1764108;80;21824;-86
2022/12/18 01:27:43;;;;;;;38.48;20.65;;;;;;;-4.33;77.36;102805.16;1771257;79;21011;-90
2022/12/18 01:30:23;;;;;;;40.45;20.48;;;;;;;-4.33;77.41;102810.30;1764818;80;21043;-88
2022/12/18 01:32:52;;;;;;;39.98;20.92;;;;;;;-4.34;77.50;102807.17;1747395;81;21056;-89
2022/12/18 01:35:27;;;;;;;42.03;21.85;;;;;;;-4.33;77.59;102806.45;1790057;79;22010;-90
2022/12/18 01:38:08;;;;;;;40.70;22.73;;;;;;;-4.32;77.65;102815.06;1795887;79;21911;-89
2022/12/18 01:41:05;;;;;;;42.03;22.87;;;;;;;-4.32;77.74;102814.73;1764217;80;21031;-89
2022/12/18 01:43:59;;;;;;;44.93;23.00;;;;;;;-4.29;77.84;102820.58;1774097;80;21051;-89
2022/12/18 01:46:51;;;;;;;42.53;23.25;;;;;;;-4.30;77.91;102816.16;1765782;79;21222;-89
2022/12/18 01:49:17;;;;;;;45.05;23.30;;;;;;;-4.38;77.98;102801.12;1768161;80;21024;-90
2022/12/18 01:51:54;;;;;;;48.90;25.32;;;;;;;-4.25;78.07;102817.63;1767458;79;21734;-90
2022/12/18 01:54:21;;;;;;;47.10;24.72;;;;;;;-4.25;78.15;102815.05;1765157;79;21119;-84
2022/12/18 01:56:48;;;;;;;48.23;24.70;;;;;;;-4.22;78.21;102816.72;1771019;79;21549;-83
2022/12/18 01:59:15;;;;;;;44.70;23.87;;;;;;;-4.17;78.27;102814.66;1764464;79;21052;-89
2022/12/18 02:01:55;;;;;;;55.28;26.75;;;;;;;-4.13;78.34;102819.42;1771401;79;21579;-90
2022/12/18 02:04:40;;;;;;;51.42;26.40;;;;;;;-4.10;78.37;102814.27;1791247;79;21756;-89
2022/12/18 02:07:25;;;;;;;47.78;24.85;;;;;;;-4.02;78.44;102824.16;1770764;79;21007;-89
2022/12/18 02:10:34;;;;;;;50.25;25.48;;;;;;;-3.96;78.48;102818.81;1774526;80;21035;-90
2022/12/18 02:13:33;;;;;;;52.08;25.92;;;;;;;-3.99;78.48;102811.67;1767057;80;21291;-86
2022/12/18 02:16:37;;;;;;;49.53;27.07;;;;;;;-3.81;78.52;102832.20;1764213;80;21059;-89
2022/12/18 02:20:05;;;;;;;50.20;26.60;;;;;;;-3.70;78.66;102832.12;1754171;81;22471;-88
2022/12/18 02:23:17;;;;;;;46.15;26.07;;;;;;;-3.60;78.67;102824.75;1763236;80;21030;-84
2022/12/18 02:26:15;;;;;;;48.35;26.80;;;;;;;-3.47;78.70;102828.71;1760227;80;21100;-85
2022/12/18 02:28:49;;;;;;;50.40;25.92;;;;;;;-3.35;78.76;102835.28;1781022;79;21126;-87
2022/12/18 02:31:24;;;;;;;51.63;26.45;;;;;;;-3.24;78.69;102831.36;1761479;79;21148;-84
2022/12/18 02:33:56;;;;;;;53.00;26.97;;;;;;;-3.16;78.70;102837.00;1760635;80;21876;-86
2022/12/18 02:36:29;;;;;;;52.90;25.37;;;;;;;-3.07;78.60;102840.62;1750734;80;21020;-90
2022/12/18 02:38:57;;;;;;;52.97;26.63;;;;;;;-3.00;78.55;102838.00;1760635;81;22018;-86
2022/12/18 02:41:23;;;;;;;48.65;25.60;;;;;;;-2.92;78.47;102836.66;1756944;81;21051;-91
2022/12/18 02:43:54;;;;;;;51.02;26.12;;;;;;;-2.86;78.40;102838.62;1763498;80;21048;-86
2022/12/18 02:46:40;;;;;;;51.35;24.60;;;;;;;-2.79;78.34;102840.77;1755328;80;21806;-86
2022/12/18 02:49:48;;;;;;;48.35;25.12;;;;;;;-2.71;78.35;102846.78;1769530;79;21563;-91
2022/12/18 02:53:01;;;;;;;43.28;23.45;;;;;;;-2.62;78.29;102843.03;1721676;80;22368;-85
2022/12/18 02:56:09;;;;;;;46.90;23.98;;;;;;;-2.56;78.08;102847.58;1769790;80;21916;-91
2022/12/18 02:59:14;;;;;;;46.92;23.00;;;;;;;-2.55;77.93;102856.78;1765666;80;21050;-90
2022/12/18 03:01:52;;;;;;;45.55;23.52;;;;;;;-2.56;77.82;102854.93;1755933;80;22578;-84
2022/12/18 03:04:41;;;;;;;47.65;23.27;;;;;;;-2.53;77.84;102858.25;1757101;80;21049;-84
2022/12/18 03:07:18;;;;;;;40.90;21.77;;;;;;;-2.52;77.83;102856.57;1714244;82;21135;-90
2022/12/18 03:09:51;;;;;;;41.15;21.55;;;;;;;-2.47;77.78;102859.30;1704049;82;21067;-90
2022/12/18 03:12:39;;;;;;;44.60;22.50;;;;;;;-2.45;77.72;102853.94;1724284;82;21333;-90
2022/12/18 03:15:28;;;;;;;38.88;21.35;;;;;;;-2.43;77.66;102851.15;1696083;83;21872;-91
2022/12/18 03:18:03;;;;;;;36.98;20.52;;;;;;;-2.45;77.53;102855.23;1717628;82;21225;-84
2022/12/18 03:20:31;;;;;;;36.10;19.70;;;;;;;-2.48;77.46;102854.48;1681241;83;21089;-83
2022/12/18 03:23:09;;;;;;;38.10;19.57;;;;;;;-2.48;77.52;102850.63;1689314;83;21057;-82
2022/12/18 03:25:38;;;;;;;37.65;18.98;;;;;;;-2.45;77.48;102859.09;1682295;84;21272;-84
2022/12/18 03:28:05;;;;;;;40.67;19.40;;;;;;;-2.44;77.46;102863.48;1690453;83;22979;-83
2022/12/18 03:30:32;;;;;;;36.65;18.73;;;;;;;-2.42;77.42;102865.86;1653044;85;21572;-83
2022/12/18 03:33:21;;;;;;;38.83;19.05;;;;;;;-2.44;77.26;102862.20;1658665;85;21053;-83
2022/12/18 03:35:48;;;;;;;35.28;17.48;;;;;;;-2.45;77.22;102870.31;1675402;84;21078;-83
2022/12/18 03:38:16;;;;;;;36.70;17.87;;;;;;;-2.48;77.12;102872.54;1678523;84;21157;-83
2022/12/18 03:41:17;;;;;;;35.73;18.25;;;;;;;-2.49;77.11;102878.47;1683838;84;21731;-84
2022/12/18 03:44:09;;;;;;;29.50;16.15;;;;;;;-2.50;77.09;102876.61;1683683;84;21065;-92
2022/12/18 03:47:16;;;;;;;30.12;16.67;;;;;;;-2.46;77.18;102884.32;1693458;83;21379;-90
2022/12/18 03:50:16;;;;;;;36.77;17.12;;;;;;;-2.42;77.23;102883.56;1712985;83;21032;-89
2022/12/18 03:53:16;;;;;;;25.17;13.53;;;;;;;-2.35;77.21;102886.44;1720238;82;21110;-83
2022/12/18 03:55:43;;;;;;;31.27;14.80;;;;;;;-2.28;77.20;102891.53;1690220;84;21723;-84
2022/12/18 03:58:09;;;;;;;22.27;13.03;;;;;;;-2.23;77.15;102894.25;1691706;84;21086;-83
2022/12/18 04:00:36;;;;;;;28.73;14.05;;;;;;;-2.20;77.05;102900.12;1651561;86;21687;-83
2022/12/18 04:03:03;;;;;;;29.98;13.78;;;;;;;-2.17;77.02;102905.24;1695688;84;21074;-84
2022/12/18 04:05:38;;;;;;;25.15;12.47;;;;;;;-2.12;77.01;102907.41;1696109;84;21078;-90
2022/12/18 04:08:11;;;;;;;25.70;13.35;;;;;;;-2.09;76.90;102909.05;1664678;86;22684;-91
2022/12/18 04:10:37;;;;;;;24.52;12.93;;;;;;;-2.06;76.83;102912.89;1692668;84;21761;-84
2022/12/18 04:13:06;;;;;;;24.80;10.90;;;;;;;-2.02;76.77;102914.14;1659342;86;21059;-91
2022/12/18 04:15:35;;;;;;;25.30;11.48;;;;;;;-2.00;76.74;102921.68;1691384;84;21026;-90
2022/12/18 04:18:02;;;;;;;20.37;10.98;;;;;;;-1.97;76.65;102914.29;1678349;84;21147;-90
2022/12/18 04:20:29;;;;;;;23.38;12.00;;;;;;;-1.97;76.45;102916.88;1720810;82;21771;-90
2022/12/18 04:22:57;;;;;;;22.02;12.03;;;;;;;-2.12;76.34;102896.74;1753142;81;22012;-91
2022/12/18 04:25:30;;;;;;;19.62;11.57;;;;;;;-2.04;76.27;102920.42;1753964;81;21063;-91
2022/12/18 04:28:20;;;;;;;21.12;11.08;;;;;;;-2.07;76.16;102921.75;1739004;81;21240;-90
2022/12/18 04:31:05;;;;;;;19.92;10.93;;;;;;;-2.14;76.07;102921.42;1774047;79;21066;-91
2022/12/18 04:33:44;;;;;;;20.02;10.70;;;;;;;-2.30;76.03;102907.22;1759809;81;21764;-90
2022/12/18 04:36:12;;;;;;;19.85;11.30;;;;;;;-2.27;76.00;102920.47;1758334;81;21304;-85
2022/12/18 04:38:54;;;;;;;19.62;10.43;;;;;;;-2.34;75.96;102923.10;1774546;79;21062;-92
2022/12/18 04:41:21;;;;;;;19.65;10.05;;;;;;;-2.39;76.00;102928.11;1776010;79;21039;-92
2022/12/18 04:43:49;;;;;;;20.00;10.98;;;;;;;-2.43;75.98;102929.42;1779453;79;21587;-87
2022/12/18 04:46:37;;;;;;;21.80;10.68;;;;;;;-2.58;76.00;102914.82;1763315;80;21729;-91
2022/12/18 04:49:06;;;;;;;19.27;10.18;;;;;;;-2.52;75.97;102938.70;1763497;80;21054;-85
2022/12/18 04:51:33;;;;;;;20.02;10.78;;;;;;;-2.58;76.01;102936.35;1772811;79;21334;-85
2022/12/18 04:54:02;;;;;;;18.37;10.72;;;;;;;-2.62;76.00;102936.76;1775127;79;22285;-84
2022/12/18 04:56:30;;;;;;;22.35;11.08;;;;;;;-2.66;76.03;102939.74;1772749;79;21082;-85
2022/12/18 04:58:57;;;;;;;17.82;10.72;;;;;;;-2.69;76.01;102944.53;1765025;80;22002;-84
2022/12/18 05:01:25;;;;;;;19.77;10.38;;;;;;;-2.73;76.02;102943.65;1785085;80;21252;-84
2022/12/18 05:04:23;;;;;;;18.40;10.25;;;;;;;-2.76;76.07;102945.86;1762275;80;21234;-89
2022/12/18 05:07:03;;;;;;;18.67;10.75;;;;;;;-2.79;76.06;102948.12;1760822;80;21033;-90
2022/12/18 05:09:51;;;;;;;19.80;10.88;;;;;;;-2.82;76.07;102947.75;1777046;79;21106;-89
2022/12/18 05:12:18;;;;;;;21.50;10.85;;;;;;;-2.84;76.08;102945.37;1768968;79;21757;-84
2022/12/18 05:14:45;;;;;;;19.30;10.03;;;;;;;-2.88;76.07;102951.84;1767306;79;21039;-84
2022/12/18 05:17:22;;;;;;;22.95;11.35;;;;;;;-2.92;76.06;102953.53;1762729;79;21051;-91
2022/12/18 05:19:57;;;;;;;19.48;10.45;;;;;;;-2.96;76.10;102956.13;1790134;80;21039;-91
2022/12/18 05:22:25;;;;;;;26.48;12.40;;;;;;;-2.99;76.10;102962.20;1775241;80;21051;-83
2022/12/18 05:24:52;;;;;;;18.57;10.93;;;;;;;-3.03;76.10;102960.02;1775603;79;22909;-89
2022/12/18 05:27:20;;;;;;;16.62;10.38;;;;;;;-3.06;76.13;102963.55;1770098;80;21015;-84
2022/12/18 05:29:47;;;;;;;23.50;12.00;;;;;;;-3.10;76.15;102967.78;1771322;79;21070;-83
2022/12/18 05:32:14;;;;;;;22.35;11.45;;;;;;;-3.11;76.19;102975.36;1764555;79;21040;-83
2022/12/18 05:35:00;;;;;;;19.77;11.65;;;;;;;-3.14;76.21;102982.34;1767798;80;21821;-90
2022/12/18 05:37:26;;;;;;;22.90;10.98;;;;;;;-3.14;76.30;102984.91;1766706;79;21708;-84
2022/12/18 05:39:54;;;;;;;19.40;11.18;;;;;;;-3.16;76.34;102983.82;1765086;80;21023;-91
2022/12/18 05:42:21;;;;;;;19.15;11.43;;;;;;;-3.17;76.36;102984.20;1765974;80;21301;-85
2022/12/18 05:44:48;;;;;;;21.68;11.60;;;;;;;-3.17;76.33;102986.78;1767116;80;21052;-91
2022/12/18 05:47:35;;;;;;;22.87;10.82;;;;;;;-3.19;76.35;102989.55;1773303;79;21072;-90
2022/12/18 05:50:41;;;;;;;23.80;10.58;;;;;;;-3.21;76.35;102996.19;1763726;80;21768;-88
2022/12/18 05:53:08;;;;;;;20.70;10.93;;;;;;;-3.20;76.40;103002.25;1767131;80;21054;-85
2022/12/18 05:55:53;;;;;;;21.97;11.28;;;;;;;-3.22;76.40;103007.21;1774406;80;21412;-89
2022/12/18 05:58:20;;;;;;;18.20;10.40;;;;;;;-3.23;76.44;103007.03;1770231;79;21059;-84
2022/12/18 06:00:47;;;;;;;22.07;10.25;;;;;;;-3.25;76.42;103004.64;1768953;79;21072;-83
2022/12/18 06:03:15;;;;;;;21.80;10.05;;;;;;;-3.23;76.48;103012.18;1775989;79;22677;-88
2022/12/18 06:05:44;;;;;;;20.45;10.95;;;;;;;-3.24;76.48;103014.22;1776160;79;21520;-83
2022/12/18 06:08:17;;;;;;;21.77;11.15;;;;;;;-3.24;76.48;103016.80;1767706;80;21071;-88
2022/12/18 06:10:51;;;;;;;19.37;10.00;;;;;;;-3.25;76.45;103015.86;1770552;79;21067;-85
2022/12/18 06:13:19;;;;;;;16.77;10.08;;;;;;;-3.26;76.44;103021.77;1771442;79;21043;-85
2022/12/18 06:16:05;;;;;;;20.25;10.25;;;;;;;-3.26;76.45;103021.77;1770938;79;23126;-91
2022/12/18 06:18:32;;;;;;;20.82;11.75;;;;;;;-3.25;76.45;103028.73;1771355;80;21320;-84
2022/12/18 06:20:59;;;;;;;20.55;11.00;;;;;;;-3.26;76.40;103031.16;1754704;79;21064;-83
2022/12/18 06:23:26;;;;;;;21.23;11.43;;;;;;;-3.28;76.35;103032.64;1765702;80;21053;-82
2022/12/18 06:25:53;;;;;;;20.85;11.15;;;;;;;-3.29;76.41;103034.27;1771677;79;21077;-82
2022/12/18 06:28:20;;;;;;;22.50;11.33;;;;;;;-3.28;76.38;103035.22;1769783;79;21783;-82
2022/12/18 06:30:48;;;;;;;20.32;11.28;;;;;;;-3.29;76.35;103038.52;1771336;80;21653;-88
2022/12/18 06:33:15;;;;;;;19.45;10.98;;;;;;;-3.32;76.33;103033.55;1765185;80;21095;-90
2022/12/18 06:35:48;;;;;;;21.35;12.20;;;;;;;-3.31;76.38;103039.62;1769140;80;21561;-89
2022/12/18 06:38:21;;;;;;;20.32;11.43;;;;;;;-3.33;76.40;103043.30;1762458;81;21584;-89
2022/12/18 06:40:48;;;;;;;20.43;11.80;;;;;;;-3.33;76.38;103049.73;1781696;79;21826;-82
2022/12/18 06:43:15;;;;;;;23.95;12.75;;;;;;;-3.33;76.37;103048.44;1767518;79;21080;-85
2022/12/18 06:45:42;;;;;;;25.32;13.55;;;;;;;-3.33;76.34;103065.19;1773764;79;21079;-83
2022/12/18 06:48:09;;;;;;;22.02;12.50;;;;;;;-3.34;76.31;103073.67;1768897;79;21794;-88
2022/12/18 06:50:36;;;;;;;24.07;14.13;;;;;;;-3.33;76.35;103074.20;1771553;80;21070;-89
2022/12/18 06:53:15;;;;;;;29.10;14.25;;;;;;;-3.33;76.30;103075.48;1769047;80;22905;-88
2022/12/18 06:56:11;;;;;;;29.25;15.60;;;;;;;-3.33;76.21;103081.92;1763910;80;21182;-90
2022/12/18 06:58:39;;;;;;;27.58;15.03;;;;;;;-3.45;76.13;103059.89;1769757;79;21661;-83
2022/12/18 07:01:07;;;;;;;27.75;14.83;;;;;;;-3.36;76.15;103089.31;1766011;80;21360;-88
2022/12/18 07:03:34;;;;;;;23.02;13.43;;;;;;;-3.37;76.14;103096.47;1764769;79;21043;-83
2022/12/18 07:06:01;;;;;;;27.52;14.38;;;;;;;-3.38;76.09;103097.22;1766480;79;21836;-83
2022/12/18 07:08:29;;;;;;;31.48;15.43;;;;;;;-3.38;76.12;103097.22;1766249;79;21051;-82
2022/12/18 07:10:56;;;;;;;26.30;15.03;;;;;;;-3.37;76.05;103096.47;1755948;79;21588;-85
2022/12/18 07:13:36;;;;;;;28.73;16.25;;;;;;;-3.38;76.02;103105.30;1765182;80;21962;-87
2022/12/18 07:16:46;;;;;;;24.82;13.68;;;;;;;-3.39;75.99;103107.34;1770283;80;21039;-87
2022/12/18 07:19:18;;;;;;;23.85;14.20;;;;;;;-3.40;75.95;103119.64;1770889;80;21816;-87
2022/12/18 07:21:45;;;;;;;27.52;14.75;;;;;;;-3.40;75.96;103124.42;1758399;81;21021;-89
2022/12/18 07:24:16;;;;;;;19.90;12.68;;;;;;;-3.41;75.95;103123.89;1734164;81;21044;-87
2022/12/18 07:26:42;;;;;;;21.35;12.58;;;;;;;-3.41;75.88;103130.70;1743508;81;21591;-86
2022/12/18 07:29:09;;;;;;;22.02;12.75;;;;;;;-3.52;75.90;103116.53;1753524;81;21043;-85
2022/12/18 07:32:16;;;;;;;30.50;14.58;;;;;;;-3.42;75.83;103133.62;1743996;80;21180;-87
2022/12/18 07:34:43;;;;;;;32.00;15.78;;;;;;;-3.43;75.79;103138.23;1747418;79;21077;-87
2022/12/18 07:37:10;;;;;;;32.38;15.95;;;;;;;-3.44;75.78;103141.53;1749293;79;21285;-87
2022/12/18 07:39:37;;;;;;;34.70;16.70;;;;;;;-3.50;75.78;103130.51;1753175;81;21346;-86
2022/12/18 07:45:15;;;;;;;35.52;17.30;;;;;;;-3.45;75.68;103141.34;1762192;81;21895;-88
2022/12/18 07:48:06;;;;;;;27.27;14.55;;;;;;;-3.45;75.64;103141.34;1753226;81;21233;-89
2022/12/18 07:50:34;;;;;;;27.00;13.85;;;;;;;-3.45;75.70;103145.20;1767035;81;21600;-86
2022/12/18 07:53:04;;;;;;;26.27;13.72;;;;;;;-3.42;75.74;103150.36;1758619;81;21053;-87
2022/12/18 07:55:32;;;;;;;24.15;14.40;;;;;;;-3.39;75.75;103155.88;1745216;80;21037;-88
2022/12/18 07:58:04;;;;;;;25.80;14.63;;;;;;;-3.36;75.76;103158.84;1756897;80;22628;-86
2022/12/18 08:00:32;;;;;;;26.70;14.50;;;;;;;-3.32;75.73;103166.19;1748019;81;21777;-86
2022/12/18 08:03:01;;;;;;;23.77;13.70;;;;;;;-3.29;75.68;103164.33;1760852;81;21091;-86
2022/12/18 08:05:29;;;;;;;32.95;15.23;;;;;;;-3.29;75.55;103163.05;1766794;80;21040;-86
2022/12/18 08:08:02;;;;;;;30.97;16.62;;;;;;;-3.28;75.51;103160.12;1759717;81;21563;-88
2022/12/18 08:10:37;;;;;;;28.67;16.30;;;;;;;-3.28;75.53;103157.17;1755247;81;21766;-86
2022/12/18 08:13:09;;;;;;;23.95;13.55;;;;;;;-3.27;75.48;103157.70;1762556;81;21070;-86
2022/12/18 08:15:36;;;;;;;21.55;13.10;;;;;;;-3.24;75.51;103167.48;1766513;81;21035;-88
2022/12/18 08:18:03;;;;;;;22.07;11.93;;;;;;;-3.19;75.46;103168.92;1755198;80;21111;-87
2022/12/18 08:20:30;;;;;;;20.77;12.03;;;;;;;-3.13;75.46;103172.25;1748986;79;21114;-86
2022/12/18 08:22:57;;;;;;;23.02;12.93;;;;;;;-3.08;75.44;103172.78;1767912;79;21989;-88
2022/12/18 08:25:25;;;;;;;25.60;13.88;;;;;;;-3.03;75.39;103174.25;1764853;79;21059;-85
2022/12/18 08:27:56;;;;;;;23.85;13.72;;;;;;;-2.98;75.36;103181.79;1769865;79;21038;-85
2022/12/18 08:30:42;;;;;;;23.00;13.32;;;;;;;-2.92;75.24;103185.84;1771296;79;21837;-85
2022/12/18 08:33:16;;;;;;;21.90;13.68;;;;;;;-2.89;75.19;103174.23;1765716;79;21032;-88
2022/12/18 08:35:51;;;;;;;20.57;12.45;;;;;;;-2.81;75.19;103182.87;1772322;79;21901;-89
2022/12/18 08:38:17;;;;;;;22.82;12.53;;;;;;;-2.77;75.10;103182.48;1767745;80;21158;-86
2022/12/18 08:40:46;;;;;;;24.07;14.23;;;;;;;-2.71;75.02;103187.44;1766343;80;21035;-88
2022/12/18 08:45:59;;;;;;;24.82;13.75;;;;;;;-2.60;75.04;103176.72;1750800;80;21112;-83
2022/12/18 08:48:25;;;;;;;21.80;13.40;;;;;;;-2.55;74.92;103167.50;1766152;79;21760;-83
2022/12/18 08:50:58;;;;;;;29.95;15.23;;;;;;;-2.48;74.88;103169.48;1767575;79;21074;-83
2022/12/18 08:53:26;;;;;;;26.90;15.13;;;;;;;-2.42;74.79;103174.06;1762826;79;22427;-90
2022/12/18 08:55:58;;;;;;;30.60;18.12;;;;;;;-2.38;74.68;103181.44;1765606;80;21039;-90
2022/12/18 08:58:53;;;;;;;29.70;18.33;;;;;;;-2.31;74.74;103177.89;1773996;79;21040;-88
2022/12/18 09:01:20;;;;;;;29.57;17.70;;;;;;;-2.24;74.71;103176.19;1769046;79;21110;-88
2022/12/18 09:03:48;;;;;;;26.57;15.45;;;;;;;-2.15;74.57;103169.89;1768721;79;21047;-84
2022/12/18 09:07:10;;;;;;;34.43;17.05;;;;;;;-2.10;74.44;103171.34;1764903;79;21040;-92
2022/12/18 09:09:37;;;;;;;32.98;18.82;;;;;;;-2.04;74.42;103180.16;1766277;79;21029;-91
2022/12/18 09:12:05;;;;;;;28.02;14.70;;;;;;;-1.96;74.26;103180.66;1767824;80;21674;-90
2022/12/18 09:14:32;;;;;;;33.25;17.25;;;;;;;-1.93;74.14;103179.73;1766407;80;21761;-88
2022/12/18 09:17:01;;;;;;;28.52;17.32;;;;;;;-1.88;74.11;103191.86;1765444;79;21024;-86
2022/12/18 09:19:28;;;;;;;22.52;11.90;;;;;;;-1.82;74.12;103192.20;1768151;79;21075;-90
2022/12/18 09:21:56;;;;;;;22.58;12.90;;;;;;;-1.74;74.00;103186.61;1773432;79;21054;-88
2022/12/18 09:24:23;;;;;;;19.90;12.15;;;;;;;-1.67;73.86;103180.46;1774927;79;21047;-89
2022/12/18 09:26:54;;;;;;;23.52;12.80;;;;;;;-1.64;73.63;103177.86;1767348;80;22048;-85
2022/12/18 09:29:21;;;;;;;32.05;17.77;;;;;;;-1.60;73.49;103176.54;1775292;79;21027;-87
2022/12/18 09:31:49;;;;;;;38.42;19.98;;;;;;;-1.57;73.32;103182.97;1769955;79;22020;-90
2022/12/18 09:34:16;;;;;;;30.80;15.48;;;;;;;-1.53;73.11;103190.70;1766543;79;21664;-87
2022/12/18 09:36:43;;;;;;;33.90;19.00;;;;;;;-1.48;73.09;103202.48;1778355;79;21054;-86
2022/12/18 09:39:10;;;;;;;32.88;16.07;;;;;;;-1.42;73.00;103204.45;1774531;79;21740;-89
2022/12/18 09:41:56;;;;;;;37.25;19.35;;;;;;;-1.39;72.83;103199.64;1771908;79;21094;-87
2022/12/18 09:44:38;;;;;;;30.10;14.73;;;;;;;-1.34;72.68;103200.14;1767317;79;21015;-85
2022/12/18 09:47:19;;;;;;;29.32;15.35;;;;;;;-1.29;72.56;103196.80;1767392;79;21660;-85
2022/12/18 09:49:49;;;;;;;27.45;14.30;;;;;;;-1.26;72.35;103200.99;1771124;80;20995;-87
2022/12/18 09:52:30;;;;;;;23.83;13.53;;;;;;;-1.26;72.22;103204.88;1771009;80;21707;-86
2022/12/18 09:55:02;;;;;;;27.25;14.73;;;;;;;-1.27;72.08;103206.55;1767737;79;21041;-84
2022/12/18 09:57:31;;;;;;;23.75;12.80;;;;;;;-1.25;71.87;103212.80;1766327;79;20957;-86
2022/12/18 10:00:18;;;;;;;22.52;12.15;;;;;;;-1.25;71.81;103216.67;1779463;79;21056;-87
2022/12/18 10:02:53;;;;;;;26.17;12.95;;;;;;;-1.23;71.78;103215.18;1766100;79;20998;-85
2022/12/18 10:05:31;;;;;;;;;;;;;;;-1.18;71.70;103210.16;1777719;79;21768;-83
2022/12/18 10:08:19;;;;;;;19.27;11.35;;;;;;;-1.14;71.48;103204.96;1761622;81;20640;-87
2022/12/18 10:10:50;;;;;;;23.02;11.95;;;;;;;-1.11;71.38;103203.99;1759556;79;21066;-85
2022/12/18 10:13:59;;;;;;;25.50;12.73;;;;;;;-1.10;71.24;103195.50;1768017;79;21345;-88
2022/12/18 10:16:58;;;;;;;21.02;11.75;;;;;;;-1.08;71.17;103196.97;1750037;79;21391;-91
2022/12/18 10:19:50;;;;;;;21.37;13.18;;;;;;;-1.06;70.98;103201.94;1750768;80;22383;-90
2022/12/18 10:23:09;;;;;;;26.57;13.72;;;;;;;-1.07;70.88;103203.95;1738552;80;21070;-91
2022/12/18 10:26:07;;;;;;;22.40;12.10;;;;;;;-1.06;70.74;103209.30;1762292;80;21571;-91
2022/12/18 10:28:41;;;;;;;22.87;12.50;;;;;;;-1.07;70.50;103210.08;1757582;79;22064;-92
2022/12/18 10:31:22;;;;;;;21.73;12.63;;;;;;;-1.09;70.39;103206.75;1764390;79;21058;-90
2022/12/18 10:33:58;;;;;;;23.02;12.63;;;;;;;-1.07;70.44;103211.36;1767872;80;22467;-91
2022/12/18 10:36:26;;;;;;;25.82;12.93;;;;;;;-1.04;70.35;103212.98;1729931;82;21360;-92
2022/12/18 10:39:12;;;;;;;25.15;12.90;;;;;;;-1.01;70.25;103212.04;1770884;79;21285;-90
2022/12/18 10:41:39;;;;;;;28.67;14.55;;;;;;;-0.97;70.24;103213.69;1763347;80;21084;-87
2022/12/18 10:44:21;;;;;;;27.10;14.13;;;;;;;-0.91;70.19;103219.52;1760478;80;21663;-90
2022/12/18 10:46:50;;;;;;;23.18;13.35;;;;;;;-0.87;70.14;103224.28;1768280;80;22034;-90
2022/12/18 10:52:59;;;;;;;23.83;13.10;;;;;;;-0.81;70.03;103210.73;1759412;80;21091;-90
2022/12/18 10:55:40;;;;;;;28.83;15.15;;;;;;;-0.78;69.92;103224.01;1747374;81;21253;-88
2022/12/18 10:58:28;;;;;;;32.58;18.00;;;;;;;-0.73;69.91;103219.33;1764339;79;21082;-90
2022/12/18 11:01:13;;;;;;;28.07;15.48;;;;;;;-0.69;69.78;103206.92;1765307;80;21835;-88
2022/12/18 11:04:00;;;;;;;28.70;16.15;;;;;;;-0.67;69.65;103204.12;1766692;79;21817;-90
2022/12/18 11:06:27;;;;;;;27.90;15.75;;;;;;;-0.65;69.53;103202.62;1764987;80;21048;-88
2022/12/18 11:09:23;;;;;;;30.25;17.05;;;;;;;-0.63;69.45;103208.88;1766556;80;21025;-90
2022/12/18 11:12:12;;;;;;;29.67;15.70;;;;;;;-0.62;69.43;103207.20;1750163;81;21541;-92
2022/12/18 11:14:50;;;;;;;28.65;15.50;;;;;;;-0.61;69.35;103209.05;1748365;81;21791;-91
2022/12/18 11:17:33;;;;;;;26.30;14.38;;;;;;;-0.59;69.22;103220.09;1729912;81;21065;-90
2022/12/18 11:20:19;;;;;;;23.32;14.18;;;;;;;-0.59;69.21;103218.80;1743997;81;21036;-88
2022/12/18 11:23:23;;;;;;;26.65;14.47;;;;;;;-0.57;69.08;103221.56;1751932;81;21069;-93
2022/12/18 11:26:22;;;;;;;30.80;16.02;;;;;;;-0.56;69.04;103220.83;1731410;82;21069;-91
2022/12/18 11:29:17;;;;;;;31.70;18.62;;;;;;;-0.56;68.99;103226.00;1697178;81;22585;-90
2022/12/18 11:31:44;;;;;;;40.65;23.27;;;;;;;-0.57;68.90;103229.32;1742409;80;21245;-89
2022/12/18 11:34:16;;;;;;;29.72;16.97;;;;;;;-0.58;68.87;103227.50;1740212;81;21412;-86
2022/12/18 11:36:45;;;;;;;43.50;26.30;;;;;;;-0.57;68.76;103221.95;1741446;81;21184;-89
2022/12/18 11:39:23;;;;;;;40.60;22.80;;;;;;;-0.58;68.69;103215.86;1748326;81;21077;-87
2022/12/18 11:42:09;;;;;;;28.62;19.87;;;;;;;-0.57;68.68;103214.19;1753553;81;22613;-86
2022/12/18 11:45:06;;;;;;;23.10;17.00;;;;;;;-0.56;68.67;103216.95;1715324;81;21036;-89
2022/12/18 11:47:41;;;;;;;28.35;21.73;;;;;;;-0.54;68.56;103216.73;1732198;81;21336;-89
2022/12/18 11:50:18;;;;;;;25.12;14.60;;;;;;;-0.53;68.48;103225.41;1762674;80;21039;-87
2022/12/18 11:52:52;;;;;;;31.60;20.75;;;;;;;-0.52;68.49;103230.75;1750811;79;21052;-91
2022/12/18 11:55:56;;;;;;;29.75;17.30;;;;;;;-0.52;68.39;103238.90;1766926;80;21760;-88
2022/12/18 11:58:34;;;;;;;30.25;17.42;;;;;;;-0.50;68.45;103248.66;1765993;79;28958;-86
2022/12/18 12:01:14;;;;;;;25.92;15.85;;;;;;;-0.48;68.31;103257.88;1768278;79;21107;-89
2022/12/18 12:04:18;;;;;;;25.60;15.08;;;;;;;-0.46;68.27;103261.55;1722961;81;21953;-89
2022/12/18 12:07:06;;;;;;;21.95;12.43;;;;;;;-0.45;68.28;103259.14;1772304;79;28109;-88